sensor_id;sensor_type;location;lat;lon;timestamp;pressure;altitude;pressure_sealevel;temperature;humidity
3260;BME280;68938;48.150;14.004;2023-04-03T00:01:16;98580.72;;;9.10;56.07
3260;BME280;68938;48.150;14.004;2023-04-03T00:03:43;98581.53;;;9.12;56.13
3260;BME280;68938;48.150;14.004;2023-04-03T00:06:11;98580.69;;;9.11;56.13
3260;BME280;68938;48.150;14.004;2023-04-03T00:08:40;98587.47;;;9.12;56.40
3260;BME280;68938;48.150;14.004;2023-04-03T00:11:07;98573.00;;;9.11;56.11
3260;BME280;68938;48.150;14.004;2023-04-03T00:13:35;98580.59;;;9.16;56.32
3260;BME280;68938;48.150;14.004;2023-04-03T00:16:03;98577.19;;;9.17;56.14
3260;BME280;68938;48.150;14.004;2023-04-03T00:18:30;98584.88;;;9.15;56.00
3260;BME280;68938;48.150;14.004;2023-04-03T00:20:58;98577.25;;;9.12;56.01
3260;BME280;68938;48.150;14.004;2023-04-03T00:23:25;98583.16;;;9.16;56.00
3260;BME280;68938;48.150;14.004;2023-04-03T00:25:52;98583.09;;;9.20;56.05
3260;BME280;68938;48.150;14.004;2023-04-03T00:28:20;98578.78;;;9.22;56.49
3260;BME280;68938;48.150;14.004;2023-04-03T00:30:49;98583.06;;;9.22;56.27
3260;BME280;68938;48.150;14.004;2023-04-03T00:33:17;98585.63;;;9.22;56.06
3260;BME280;68938;48.150;14.004;2023-04-03T00:35:44;98581.31;;;9.24;56.06
3260;BME280;68938;48.150;14.004;2023-04-03T00:38:11;98589.84;;;9.23;55.85
3260;BME280;68938;48.150;14.004;2023-04-03T00:40:42;98585.63;;;9.22;55.68
3260;BME280;68938;48.150;14.004;2023-04-03T00:43:17;98588.22;;;9.19;55.94
3260;BME280;68938;48.150;14.004;2023-04-03T00:45:50;98595.06;;;9.18;55.81
3260;BME280;68938;48.150;14.004;2023-04-03T00:48:44;98594.22;;;9.18;56.52
3260;BME280;68938;48.150;14.004;2023-04-03T00:51:16;98591.72;;;9.16;56.13
3260;BME280;68938;48.150;14.004;2023-04-03T00:53:58;98590.09;;;9.11;55.74
3260;BME280;68938;48.150;14.004;2023-04-03T00:56:27;98590.91;;;9.11;55.59
3260;BME280;68938;48.150;14.004;2023-04-03T00:59:02;98590.03;;;9.12;55.81
3260;BME280;68938;48.150;14.004;2023-04-03T01:01:32;98590.97;;;9.10;55.59
3260;BME280;68938;48.150;14.004;2023-04-03T01:04:00;98587.56;;;9.08;55.32
3260;BME280;68938;48.150;14.004;2023-04-03T01:06:31;98580.72;;;9.08;55.39
3260;BME280;68938;48.150;14.004;2023-04-03T01:09:01;98589.25;;;9.10;55.95
3260;BME280;68938;48.150;14.004;2023-04-03T01:11:28;98581.69;;;9.02;55.29
3260;BME280;68938;48.150;14.004;2023-04-03T01:13:55;98587.59;;;9.06;55.35
3260;BME280;68938;48.150;14.004;2023-04-03T01:16:22;98584.97;;;9.09;55.47
3260;BME280;68938;48.150;14.004;2023-04-03T01:18:49;98581.56;;;9.10;55.59
3260;BME280;68938;48.150;14.004;2023-04-03T01:27:00;98593.47;;;9.13;55.98
3260;BME280;68938;48.150;14.004;2023-04-03T01:29:28;98590.00;;;9.15;56.58
3260;BME280;68938;48.150;14.004;2023-04-03T01:31:57;98598.50;;;9.17;56.49
3260;BME280;68938;48.150;14.004;2023-04-03T01:34:27;98589.94;;;9.20;56.08
3260;BME280;68938;48.150;14.004;2023-04-03T01:36:54;98592.50;;;9.18;56.02
3260;BME280;68938;48.150;14.004;2023-04-03T01:39:22;98594.22;;;9.18;55.96
3260;BME280;68938;48.150;14.004;2023-04-03T01:41:49;98601.09;;;9.14;55.54
3260;BME280;68938;48.150;14.004;2023-04-03T01:44:16;98603.72;;;9.13;55.77
3260;BME280;68938;48.150;14.004;2023-04-03T01:46:43;98611.47;;;9.07;55.77
3260;BME280;68938;48.150;14.004;2023-04-03T01:49:10;98610.59;;;9.08;55.64
3260;BME280;68938;48.150;14.004;2023-04-03T01:51:37;98613.28;;;9.00;55.96
3260;BME280;68938;48.150;14.004;2023-04-03T01:54:04;98608.13;;;9.03;55.89
3260;BME280;68938;48.150;14.004;2023-04-03T01:56:31;98612.38;;;9.04;56.13
3260;BME280;68938;48.150;14.004;2023-04-03T01:58:58;98608.09;;;9.05;56.37
3260;BME280;68938;48.150;14.004;2023-04-03T02:01:24;98600.47;;;9.01;55.68
3260;BME280;68938;48.150;14.004;2023-04-03T02:03:51;98606.41;;;9.02;56.02
3260;BME280;68938;48.150;14.004;2023-04-03T02:06:18;98603.06;;;9.00;55.78
3260;BME280;68938;48.150;14.004;2023-04-03T02:08:45;98603.84;;;9.02;55.58
3260;BME280;68938;48.150;14.004;2023-04-03T02:11:12;98609.06;;;8.97;55.44
3260;BME280;68938;48.150;14.004;2023-04-03T02:13:39;98606.50;;;8.97;55.11
3260;BME280;68938;48.150;14.004;2023-04-03T02:16:07;98612.53;;;8.92;54.99
3260;BME280;68938;48.150;14.004;2023-04-03T02:18:36;98604.06;;;8.90;55.28
3260;BME280;68938;48.150;14.004;2023-04-03T02:21:04;98603.22;;;8.88;55.58
3260;BME280;68938;48.150;14.004;2023-04-03T02:23:31;98604.06;;;8.90;55.61
3260;BME280;68938;48.150;14.004;2023-04-03T02:26:09;98605.78;;;8.88;55.23
3260;BME280;68938;48.150;14.004;2023-04-03T02:28:38;98605.84;;;8.85;55.45
3260;BME280;68938;48.150;14.004;2023-04-03T02:31:06;98612.63;;;8.87;55.59
3260;BME280;68938;48.150;14.004;2023-04-03T02:33:35;98610.94;;;8.85;54.91
3260;BME280;68938;48.150;14.004;2023-04-03T02:36:04;98611.91;;;8.77;55.22
3260;BME280;68938;48.150;14.004;2023-04-03T02:38:32;98611.91;;;8.79;55.36
3260;BME280;68938;48.150;14.004;2023-04-03T02:41:01;98610.19;;;8.78;55.47
3260;BME280;68938;48.150;14.004;2023-04-03T02:43:29;98608.47;;;8.78;55.46
3260;BME280;68938;48.150;14.004;2023-04-03T02:45:55;98608.44;;;8.82;55.65
3260;BME280;68938;48.150;14.004;2023-04-03T02:48:23;98612.72;;;8.83;54.76
3260;BME280;68938;48.150;14.004;2023-04-03T02:50:50;98612.75;;;8.80;55.15
3260;BME280;68938;48.150;14.004;2023-04-03T02:53:18;98614.44;;;8.82;55.65
3260;BME280;68938;48.150;14.004;2023-04-03T02:55:45;98611.06;;;8.77;56.65
3260;BME280;68938;48.150;14.004;2023-04-03T02:58:12;98616.16;;;8.80;55.88
3260;BME280;68938;48.150;14.004;2023-04-03T03:00:39;98621.25;;;8.80;55.84
3260;BME280;68938;48.150;14.004;2023-04-03T03:03:07;98617.00;;;8.81;55.71
3260;BME280;68938;48.150;14.004;2023-04-03T03:05:34;98614.56;;;8.73;55.95
3260;BME280;68938;48.150;14.004;2023-04-03T03:08:01;98614.50;;;8.76;56.50
3260;BME280;68938;48.150;14.004;2023-04-03T03:10:28;98611.03;;;8.78;56.18
3260;BME280;68938;48.150;14.004;2023-04-03T03:12:54;98609.34;;;8.79;55.74
3260;BME280;68938;48.150;14.004;2023-04-03T03:15:21;98611.06;;;8.77;55.30
3260;BME280;68938;48.150;14.004;2023-04-03T03:17:48;98613.59;;;8.80;55.75
3260;BME280;68938;48.150;14.004;2023-04-03T03:20:15;98618.66;;;8.82;55.92
3260;BME280;68938;48.150;14.004;2023-04-03T03:22:42;98614.44;;;8.82;56.35
3260;BME280;68938;48.150;14.004;2023-04-03T03:25:09;98609.31;;;8.81;56.12
3260;BME280;68938;48.150;14.004;2023-04-03T03:27:36;98608.47;;;8.80;55.84
3260;BME280;68938;48.150;14.004;2023-04-03T03:30:04;98616.97;;;8.82;55.83
3260;BME280;68938;48.150;14.004;2023-04-03T03:32:32;98604.19;;;8.81;55.43
3260;BME280;68938;48.150;14.004;2023-04-03T03:34:59;98606.78;;;8.79;54.99
3260;BME280;68938;48.150;14.004;2023-04-03T03:37:26;98607.63;;;8.80;55.87
3260;BME280;68938;48.150;14.004;2023-04-03T03:39:52;98608.47;;;8.80;55.73
3260;BME280;68938;48.150;14.004;2023-04-03T03:42:19;98608.47;;;8.80;55.89
3260;BME280;68938;48.150;14.004;2023-04-03T03:44:46;98611.03;;;8.80;55.84
3260;BME280;68938;48.150;14.004;2023-04-03T03:47:13;98613.63;;;8.77;55.83
3260;BME280;68938;48.150;14.004;2023-04-03T03:49:40;98609.41;;;8.74;55.83
3260;BME280;68938;48.150;14.004;2023-04-03T03:52:07;98612.88;;;8.72;55.99
3260;BME280;68938;48.150;14.004;2023-04-03T03:54:33;98613.75;;;8.69;56.15
3260;BME280;68938;48.150;14.004;2023-04-03T03:57:00;98609.47;;;8.70;56.57
3260;BME280;68938;48.150;14.004;2023-04-03T03:59:27;98606.03;;;8.72;56.31
3260;BME280;68938;48.150;14.004;2023-04-03T04:01:54;98609.44;;;8.73;56.26
3260;BME280;68938;48.150;14.004;2023-04-03T04:04:21;98615.47;;;8.69;55.88
3260;BME280;68938;48.150;14.004;2023-04-03T04:06:48;98611.19;;;8.68;55.81
3260;BME280;68938;48.150;14.004;2023-04-03T04:09:15;98613.78;;;8.66;55.68
3260;BME280;68938;48.150;14.004;2023-04-03T04:11:42;98612.97;;;8.64;55.96
3260;BME280;68938;48.150;14.004;2023-04-03T04:14:09;98612.09;;;8.67;55.87
3260;BME280;68938;48.150;14.004;2023-04-03T04:16:36;98607.84;;;8.66;55.97
3260;BME280;68938;48.150;14.004;2023-04-03T04:19:02;98606.97;;;8.68;56.16
3260;BME280;68938;48.150;14.004;2023-04-03T04:21:33;98613.75;;;8.69;55.59
3260;BME280;68938;48.150;14.004;2023-04-03T04:23:59;98614.59;;;8.70;55.73
3260;BME280;68938;48.150;14.004;2023-04-03T04:26:26;98615.50;;;8.66;55.31
3260;BME280;68938;48.150;14.004;2023-04-03T04:28:53;98610.41;;;8.66;54.98
3260;BME280;68938;48.150;14.004;2023-04-03T04:31:20;98608.69;;;8.66;55.21
3260;BME280;68938;48.150;14.004;2023-04-03T04:33:47;98618.03;;;8.67;54.68
3260;BME280;68938;48.150;14.004;2023-04-03T04:36:14;98619.75;;;8.67;55.16
3260;BME280;68938;48.150;14.004;2023-04-03T04:38:42;98622.31;;;8.68;55.78
3260;BME280;68938;48.150;14.004;2023-04-03T04:41:09;98626.53;;;8.69;55.45
3260;BME280;68938;48.150;14.004;2023-04-03T04:43:35;98629.97;;;8.68;54.58
3260;BME280;68938;48.150;14.004;2023-04-03T04:46:07;98635.09;;;8.68;54.39
3260;BME280;68938;48.150;14.004;2023-04-03T04:48:36;98628.31;;;8.64;54.37
3260;BME280;68938;48.150;14.004;2023-04-03T04:51:03;98626.69;;;8.59;53.27
3260;BME280;68938;48.150;14.004;2023-04-03T04:53:30;98628.41;;;8.58;54.06
3260;BME280;68938;48.150;14.004;2023-04-03T04:55:57;98627.66;;;8.51;53.90
3260;BME280;68938;48.150;14.004;2023-04-03T04:58:24;98633.66;;;8.49;53.84
3260;BME280;68938;48.150;14.004;2023-04-03T05:03:29;98638.75;;;8.49;53.37
3260;BME280;68938;48.150;14.004;2023-04-03T05:05:56;98632.81;;;8.47;53.47
3260;BME280;68938;48.150;14.004;2023-04-03T05:08:23;98643.03;;;8.47;53.94
3260;BME280;68938;48.150;14.004;2023-04-03T05:10:50;98637.03;;;8.49;53.43
3260;BME280;68938;48.150;14.004;2023-04-03T05:13:20;98645.66;;;8.42;53.79
3260;BME280;68938;48.150;14.004;2023-04-03T05:15:47;98643.94;;;8.43;53.64
3260;BME280;68938;48.150;14.004;2023-04-03T05:18:14;98644.81;;;8.40;54.14
3260;BME280;68938;48.150;14.004;2023-04-03T05:20:41;98641.38;;;8.43;53.58
3260;BME280;68938;48.150;14.004;2023-04-03T05:23:09;98650.81;;;8.39;53.55
3260;BME280;68938;48.150;14.004;2023-04-03T05:25:38;98652.44;;;8.45;53.71
3260;BME280;68938;48.150;14.004;2023-04-03T05:28:06;98661.75;;;8.49;53.56
3260;BME280;68938;48.150;14.004;2023-04-03T05:30:33;98648.97;;;8.49;53.71
3260;BME280;68938;48.150;14.004;2023-04-03T05:33:00;98653.19;;;8.53;53.58
3260;BME280;68938;48.150;14.004;2023-04-03T05:35:27;98652.31;;;8.54;53.67
3260;BME280;68938;48.150;14.004;2023-04-03T05:37:54;98657.38;;;8.57;53.77
3260;BME280;68938;48.150;14.004;2023-04-03T05:40:21;98653.94;;;8.60;53.65
3260;BME280;68938;48.150;14.004;2023-04-03T05:42:48;98659.88;;;8.63;53.60
3260;BME280;68938;48.150;14.004;2023-04-03T05:45:15;98657.28;;;8.66;53.99
3260;BME280;68938;48.150;14.004;2023-04-03T05:47:42;98659.78;;;8.69;53.85
3260;BME280;68938;48.150;14.004;2023-04-03T05:50:09;98663.16;;;8.73;53.41
3260;BME280;68938;48.150;14.004;2023-04-03T05:52:38;98658.84;;;8.76;53.50
3260;BME280;68938;48.150;14.004;2023-04-03T05:55:07;98664.75;;;8.78;54.60
3260;BME280;68938;48.150;14.004;2023-04-03T05:57:35;98663.94;;;8.76;53.77
3260;BME280;68938;48.150;14.004;2023-04-03T06:00:04;98669.88;;;8.78;53.56
3260;BME280;68938;48.150;14.004;2023-04-03T06:02:33;98659.63;;;8.80;53.54
3260;BME280;68938;48.150;14.004;2023-04-03T06:05:00;98660.47;;;8.82;53.98
3260;BME280;68938;48.150;14.004;2023-04-03T06:07:27;98662.19;;;8.78;53.93
3260;BME280;68938;48.150;14.004;2023-04-03T06:09:56;98664.75;;;8.80;54.44
3260;BME280;68938;48.150;14.004;2023-04-03T06:12:24;98658.75;;;8.81;54.14
3260;BME280;68938;48.150;14.004;2023-04-03T06:14:51;98663.06;;;8.79;54.27
3260;BME280;68938;48.150;14.004;2023-04-03T06:17:18;98674.91;;;8.85;53.29
3260;BME280;68938;48.150;14.004;2023-04-03T06:19:45;98676.63;;;8.84;53.94
3260;BME280;68938;48.150;14.004;2023-04-03T06:22:13;98673.25;;;8.82;53.46
3260;BME280;68938;48.150;14.004;2023-04-03T06:24:40;98683.41;;;8.87;53.91
3260;BME280;68938;48.150;14.004;2023-04-03T06:27:07;98681.69;;;8.87;53.68
3260;BME280;68938;48.150;14.004;2023-04-03T06:29:35;98681.66;;;8.90;53.03
3260;BME280;68938;48.150;14.004;2023-04-03T06:32:02;98689.31;;;8.90;53.22
3260;BME280;68938;48.150;14.004;2023-04-03T06:34:29;98677.31;;;8.95;53.07
3260;BME280;68938;48.150;14.004;2023-04-03T06:36:56;98684.22;;;8.89;53.08
3260;BME280;68938;48.150;14.004;2023-04-03T06:39:23;98689.34;;;8.89;53.79
3260;BME280;68938;48.150;14.004;2023-04-03T06:41:50;98685.94;;;8.88;53.24
3260;BME280;68938;48.150;14.004;2023-04-03T06:44:18;98685.06;;;8.92;53.73
3260;BME280;68938;48.150;14.004;2023-04-03T06:46:45;98680.75;;;8.94;53.47
3260;BME280;68938;48.150;14.004;2023-04-03T06:49:12;98684.16;;;8.93;53.05
3260;BME280;68938;48.150;14.004;2023-04-03T06:51:39;98685.06;;;8.92;53.15
3260;BME280;68938;48.150;14.004;2023-04-03T06:54:06;98684.13;;;8.96;52.87
3260;BME280;68938;48.150;14.004;2023-04-03T06:56:34;98684.00;;;9.04;52.90
3260;BME280;68938;48.150;14.004;2023-04-03T06:59:01;98680.63;;;9.04;52.81
3260;BME280;68938;48.150;14.004;2023-04-03T07:01:30;98687.44;;;9.01;53.73
3260;BME280;68938;48.150;14.004;2023-04-03T07:03:57;98687.38;;;9.08;52.75
3260;BME280;68938;48.150;14.004;2023-04-03T07:06:24;98689.88;;;9.11;52.68
3260;BME280;68938;48.150;14.004;2023-04-03T07:08:51;98696.63;;;9.16;52.67
3260;BME280;68938;48.150;14.004;2023-04-03T07:11:18;98686.31;;;9.21;52.29
3260;BME280;68938;48.150;14.004;2023-04-03T07:13:45;98698.94;;;9.32;52.52
3260;BME280;68938;48.150;14.004;2023-04-03T07:16:12;98701.41;;;9.38;51.47
3260;BME280;68938;48.150;14.004;2023-04-03T07:18:39;98697.88;;;9.45;51.32
3260;BME280;68938;48.150;14.004;2023-04-03T07:21:06;98702.88;;;9.53;50.18
3260;BME280;68938;48.150;14.004;2023-04-03T07:23:33;98703.66;;;9.56;48.56
3260;BME280;68938;48.150;14.004;2023-04-03T07:26:00;98707.91;;;9.59;48.15
3260;BME280;68938;48.150;14.004;2023-04-03T07:28:27;98704.53;;;9.55;47.18
3260;BME280;68938;48.150;14.004;2023-04-03T07:31:01;98708.78;;;9.56;47.27
3260;BME280;68938;48.150;14.004;2023-04-03T07:33:28;98711.34;;;9.58;45.99
3260;BME280;68938;48.150;14.004;2023-04-03T07:35:55;98709.56;;;9.61;46.19
3260;BME280;68938;48.150;14.004;2023-04-03T07:38:22;98710.38;;;9.63;46.53
3260;BME280;68938;48.150;14.004;2023-04-03T07:40:50;98720.00;;;9.51;44.38
3260;BME280;68938;48.150;14.004;2023-04-03T07:43:18;98720.78;;;9.53;45.05
3260;BME280;68938;48.150;14.004;2023-04-03T07:45:47;98712.97;;;9.60;45.08
3260;BME280;68938;48.150;14.004;2023-04-03T07:48:20;98723.03;;;9.72;45.37
3260;BME280;68938;48.150;14.004;2023-04-03T07:50:48;98716.13;;;9.76;45.83
3260;BME280;68938;48.150;14.004;2023-04-03T07:53:16;98722.88;;;9.80;45.56
3260;BME280;68938;48.150;14.004;2023-04-03T07:55:47;98720.22;;;9.86;44.46
3260;BME280;68938;48.150;14.004;2023-04-03T07:58:17;98725.53;;;9.76;45.37
3260;BME280;68938;48.150;14.004;2023-04-03T08:00:45;98723.97;;;9.68;45.43
3260;BME280;68938;48.150;14.004;2023-04-03T08:03:12;98731.41;;;9.82;45.26
3260;BME280;68938;48.150;14.004;2023-04-03T08:05:42;98728.84;;;9.82;45.15
3260;BME280;68938;48.150;14.004;2023-04-03T08:08:14;98731.31;;;9.88;46.17
3260;BME280;68938;48.150;14.004;2023-04-03T08:10:49;98720.09;;;9.94;47.10
3260;BME280;68938;48.150;14.004;2023-04-03T08:13:18;98731.06;;;10.01;47.32
3260;BME280;68938;48.150;14.004;2023-04-03T08:15:46;98733.91;;;9.85;48.01
3260;BME280;68938;48.150;14.004;2023-04-03T08:18:14;98740.66;;;9.38;46.40
3260;BME280;68938;48.150;14.004;2023-04-03T08:20:42;98740.97;;;9.17;46.60
3260;BME280;68938;48.150;14.004;2023-04-03T08:23:09;98745.38;;;9.07;48.94
3260;BME280;68938;48.150;14.004;2023-04-03T08:25:41;98751.47;;;9.00;49.91
3260;BME280;68938;48.150;14.004;2023-04-03T08:28:10;98764.72;;;8.63;51.99
3260;BME280;68938;48.150;14.004;2023-04-03T08:30:41;98767.53;;;8.36;53.22
3260;BME280;68938;48.150;14.004;2023-04-03T08:33:10;98770.31;;;8.17;55.08
3260;BME280;68938;48.150;14.004;2023-04-03T08:35:40;98773.84;;;7.99;56.26
3260;BME280;68938;48.150;14.004;2023-04-03T08:38:10;98764.56;;;7.92;56.03
3260;BME280;68938;48.150;14.004;2023-04-03T08:40:37;98773.22;;;7.76;57.19
3260;BME280;68938;48.150;14.004;2023-04-03T08:46:14;98774.94;;;7.74;56.47
3260;BME280;68938;48.150;14.004;2023-04-03T08:48:42;98771.44;;;7.87;57.68
3260;BME280;68938;48.150;14.004;2023-04-03T08:51:15;98766.28;;;7.93;56.41
3260;BME280;68938;48.150;14.004;2023-04-03T08:53:56;98769.56;;;8.04;57.36
3260;BME280;68938;48.150;14.004;2023-04-03T08:56:26;98765.22;;;8.13;57.04
3260;BME280;68938;48.150;14.004;2023-04-03T08:59:00;98765.97;;;8.22;56.30
3260;BME280;68938;48.150;14.004;2023-04-03T09:01:37;98766.69;;;8.34;57.31
3260;BME280;68938;48.150;14.004;2023-04-03T09:04:14;98767.53;;;8.36;55.44
3260;BME280;68938;48.150;14.004;2023-04-03T09:06:57;98763.19;;;8.48;55.86
3260;BME280;68938;48.150;14.004;2023-04-03T09:09:38;98766.56;;;8.52;56.02
3260;BME280;68938;48.150;14.004;2023-04-03T09:12:46;98764.84;;;8.51;56.67
3260;BME280;68938;48.150;14.004;2023-04-03T09:18:12;98773.34;;;8.53;55.31
3260;BME280;68938;48.150;14.004;2023-04-03T09:23:44;98773.31;;;8.56;54.71
3260;BME280;68938;48.150;14.004;2023-04-03T09:26:24;98773.22;;;8.65;54.40
3260;BME280;68938;48.150;14.004;2023-04-03T09:28:59;98764.66;;;8.66;53.91
3260;BME280;68938;48.150;14.004;2023-04-03T09:31:40;98773.13;;;8.71;54.00
3260;BME280;68938;48.150;14.004;2023-04-03T09:34:23;98774.00;;;8.72;53.58
3260;BME280;68938;48.150;14.004;2023-04-03T09:36:58;98767.09;;;8.77;54.25
3260;BME280;68938;48.150;14.004;2023-04-03T09:39:28;98767.16;;;8.72;53.70
3260;BME280;68938;48.150;14.004;2023-04-03T09:44:35;98769.41;;;8.95;55.25
3260;BME280;68938;48.150;14.004;2023-04-03T09:49:49;98770.22;;;9.00;53.21
3260;BME280;68938;48.150;14.004;2023-04-03T09:52:23;98775.25;;;9.07;53.22
3260;BME280;68938;48.150;14.004;2023-04-03T09:54:52;98766.72;;;9.05;53.28
3260;BME280;68938;48.150;14.004;2023-04-03T09:57:19;98766.50;;;9.21;54.86
3260;BME280;68938;48.150;14.004;2023-04-03T09:59:56;98760.66;;;9.12;53.47
3260;BME280;68938;48.150;14.004;2023-04-03T10:02:35;98767.28;;;9.27;52.66
3260;BME280;68938;48.150;14.004;2023-04-03T10:05:26;98767.97;;;9.38;53.73
3260;BME280;68938;48.150;14.004;2023-04-03T10:08:08;98759.81;;;9.11;55.45
3260;BME280;68938;48.150;14.004;2023-04-03T10:10:37;98759.19;;;8.95;48.35
3260;BME280;68938;48.150;14.004;2023-04-03T10:13:07;98762.97;;;9.30;48.13
3260;BME280;68938;48.150;14.004;2023-04-03T10:16:01;98754.03;;;9.56;47.26
3260;BME280;68938;48.150;14.004;2023-04-03T10:24:14;98754.56;;;9.76;43.36
3260;BME280;68938;48.150;14.004;2023-04-03T10:27:15;98754.19;;;9.99;43.67
3260;BME280;68938;48.150;14.004;2023-04-03T10:32:46;98754.91;;;10.06;42.93
3260;BME280;68938;48.150;14.004;2023-04-03T10:35:47;98748.66;;;10.20;43.34
3260;BME280;68938;48.150;14.004;2023-04-03T10:38:55;98749.97;;;10.43;42.33
3260;BME280;68938;48.150;14.004;2023-04-03T10:41:53;98751.41;;;10.56;41.63
3260;BME280;68938;48.150;14.004;2023-04-03T11:01:54;98735.31;;;11.29;38.90
3260;BME280;68938;48.150;14.004;2023-04-03T11:04:27;98727.63;;;11.27;37.70
3260;BME280;68938;48.150;14.004;2023-04-03T11:08:03;98731.91;;;11.28;38.82
3260;BME280;68938;48.150;14.004;2023-04-03T11:10:10;98725.81;;;11.32;38.52
3260;BME280;68938;48.150;14.004;2023-04-03T11:12:44;98727.63;;;11.29;38.65
3260;BME280;68938;48.150;14.004;2023-04-03T11:15:16;98722.56;;;11.24;38.00
3260;BME280;68938;48.150;14.004;2023-04-03T11:17:55;98728.56;;;11.25;37.81
3260;BME280;68938;48.150;14.004;2023-04-03T11:20:32;98729.78;;;11.08;36.77
3260;BME280;68938;48.150;14.004;2023-04-03T11:23:19;98728.66;;;11.20;36.65
3260;BME280;68938;48.150;14.004;2023-04-03T11:25:51;98721.28;;;11.06;36.92
3260;BME280;68938;48.150;14.004;2023-04-03T11:28:21;98725.81;;;10.95;35.97
3260;BME280;68938;48.150;14.004;2023-04-03T11:33:58;98717.34;;;10.91;37.65
3260;BME280;68938;48.150;14.004;2023-04-03T11:36:43;98712.22;;;10.90;37.86
3260;BME280;68938;48.150;14.004;2023-04-03T11:39:21;98719.78;;;10.96;38.21
3260;BME280;68938;48.150;14.004;2023-04-03T11:41:50;98715.47;;;10.98;37.80
3260;BME280;68938;48.150;14.004;2023-04-03T11:44:35;98710.22;;;11.04;36.73
3260;BME280;68938;48.150;14.004;2023-04-03T11:47:05;98712.78;;;11.04;36.54
3260;BME280;68938;48.150;14.004;2023-04-03T11:50:03;98709.38;;;11.02;35.17
3260;BME280;68938;48.150;14.004;2023-04-03T11:52:57;98717.81;;;11.09;36.75
3260;BME280;68938;48.150;14.004;2023-04-03T11:58:26;98704.91;;;11.12;35.74
3260;BME280;68938;48.150;14.004;2023-04-03T12:01:04;98708.16;;;11.19;36.00
3260;BME280;68938;48.150;14.004;2023-04-03T12:16:59;98708.22;;;10.77;39.60
3260;BME280;68938;48.150;14.004;2023-04-03T12:19:37;98707.00;;;10.54;40.13
3260;BME280;68938;48.150;14.004;2023-04-03T12:22:16;98716.97;;;10.26;40.71
3260;BME280;68938;48.150;14.004;2023-04-03T12:24:51;98712.94;;;10.11;41.52
3260;BME280;68938;48.150;14.004;2023-04-03T12:27:33;98716.47;;;10.06;40.86
3260;BME280;68938;48.150;14.004;2023-04-03T12:30:07;98721.06;;;9.88;40.49
3260;BME280;68938;48.150;14.004;2023-04-03T12:35:31;98726.53;;;9.68;41.38
3260;BME280;68938;48.150;14.004;2023-04-03T12:41:30;98721.06;;;9.37;41.62
3260;BME280;68938;48.150;14.004;2023-04-03T12:44:26;98722.69;;;9.41;41.91
3260;BME280;68938;48.150;14.004;2023-04-03T12:47:23;98724.38;;;9.42;40.84
3260;BME280;68938;48.150;14.004;2023-04-03T12:49:53;98720.34;;;9.28;40.24
3260;BME280;68938;48.150;14.004;2023-04-03T12:53:03;98713.47;;;9.31;40.20
3260;BME280;68938;48.150;14.004;2023-04-03T12:55:31;98710.09;;;9.26;39.62
3260;BME280;68938;48.150;14.004;2023-04-03T12:58:17;98712.41;;;9.43;39.36
3260;BME280;68938;48.150;14.004;2023-04-03T13:01:10;98718.31;;;9.46;40.20
3260;BME280;68938;48.150;14.004;2023-04-03T13:03:41;98714.22;;;9.38;39.96
3260;BME280;68938;48.150;14.004;2023-04-03T13:06:19;98710.59;;;9.51;39.40
3260;BME280;68938;48.150;14.004;2023-04-03T13:08:59;98712.13;;;9.60;39.46
3260;BME280;68938;48.150;14.004;2023-04-03T13:11:30;98709.78;;;9.47;38.42
3260;BME280;68938;48.150;14.004;2023-04-03T13:14:05;98713.16;;;9.51;37.94
3260;BME280;68938;48.150;14.004;2023-04-03T13:16:56;98714.59;;;9.66;37.79
3260;BME280;68938;48.150;14.004;2023-04-03T13:19:26;98706.88;;;9.69;37.92
3260;BME280;68938;48.150;14.004;2023-04-03T13:22:20;98697.25;;;9.82;37.85
3260;BME280;68938;48.150;14.004;2023-04-03T13:24:58;98698.63;;;10.00;37.91
3260;BME280;68938;48.150;14.004;2023-04-03T13:27:31;98695.03;;;10.08;37.10
3260;BME280;68938;48.150;14.004;2023-04-03T13:30:02;98702.09;;;9.99;37.18
3260;BME280;68938;48.150;14.004;2023-04-03T13:32:31;98700.94;;;10.13;37.56
3260;BME280;68938;48.150;14.004;2023-04-03T13:34:59;98695.91;;;10.09;37.51
3260;BME280;68938;48.150;14.004;2023-04-03T13:37:57;98700.13;;;10.11;36.73
3260;BME280;68938;48.150;14.004;2023-04-03T13:40:27;98690.41;;;10.29;35.87
3260;BME280;68938;48.150;14.004;2023-04-03T13:43:18;98694.41;;;10.42;36.79
3260;BME280;68938;48.150;14.004;2023-04-03T13:46:22;98681.66;;;10.39;36.26
3260;BME280;68938;48.150;14.004;2023-04-03T13:48:54;98679.72;;;10.50;36.11
3260;BME280;68938;48.150;14.004;2023-04-03T13:51:29;98688.81;;;10.65;36.14
3260;BME280;68938;48.150;14.004;2023-04-03T13:53:59;98686.41;;;10.57;36.19
3260;BME280;68938;48.150;14.004;2023-04-03T13:56:34;98677.94;;;10.10;36.70
3260;BME280;68938;48.150;14.004;2023-04-03T14:04:53;98692.97;;;10.29;35.82
3260;BME280;68938;48.150;14.004;2023-04-03T14:07:20;98682.03;;;10.19;34.93
3260;BME280;68938;48.150;14.004;2023-04-03T14:09:47;98683.59;;;10.28;35.83
3260;BME280;68938;48.150;14.004;2023-04-03T14:12:19;98688.94;;;10.60;35.24
3260;BME280;68938;48.150;14.004;2023-04-03T14:15:01;98674.50;;;10.94;35.85
3260;BME280;68938;48.150;14.004;2023-04-03T14:17:34;98676.22;;;10.93;34.68
3260;BME280;68938;48.150;14.004;2023-04-03T14:20:02;98671.41;;;10.79;34.16
3260;BME280;68938;48.150;14.004;2023-04-03T14:22:31;98669.31;;;10.58;34.69
3260;BME280;68938;48.150;14.004;2023-04-03T14:24:59;98676.81;;;10.67;34.19
3260;BME280;68938;48.150;14.004;2023-04-03T14:27:36;98674.19;;;10.68;34.12
3260;BME280;68938;48.150;14.004;2023-04-03T14:30:30;98672.31;;;10.77;34.51
3260;BME280;68938;48.150;14.004;2023-04-03T14:32:59;98676.94;;;11.00;34.35
3260;BME280;68938;48.150;14.004;2023-04-03T14:35:27;98669.41;;;10.92;33.17
3260;BME280;68938;48.150;14.004;2023-04-03T14:37:55;98669.03;;;11.09;34.20
3260;BME280;68938;48.150;14.004;2023-04-03T14:40:25;98669.03;;;11.09;33.21
3260;BME280;68938;48.150;14.004;2023-04-03T14:42:54;98672.91;;;11.25;33.07
3260;BME280;68938;48.150;14.004;2023-04-03T14:45:22;98674.47;;;11.31;32.56
3260;BME280;68938;48.150;14.004;2023-04-03T14:47:51;98678.63;;;11.36;32.85
3260;BME280;68938;48.150;14.004;2023-04-03T14:50:24;98681.47;;;11.24;33.46
3260;BME280;68938;48.150;14.004;2023-04-03T14:52:56;98677.84;;;10.97;32.80